Terminal Aerodrome Forecast
Issued by NWS

Home | Current Version | Previous Version | Text Only | Print | Product List | Glossary On
Versions: 1 2 3 4 5 6 7 8 9 10 11 12 13 14 15 16 17
000
FTUS43 KLSX 180520
TAFUIN
TAF
KUIN 180520Z 1806/1906 23006KT 5SM -DZ BR OVC008
     FM181500 24010KT P6SM BKN015
     FM181800 24011KT P6SM SCT040=

USA.gov is the U.S. government's official web portal to all federal, state and local government web resources and services.